CYQZ

Quesnel Airport

Quesnel, British Columbia, Canada
METAR CYQZ 172300Z AUTO 29005KT 260V340 9SM FEW150 29/09 A2992 RMK SLP135 DENSITY ALT 3700FT
Observed Flight Rules
Jul-17 @ 23:00 UTC (23 minutes ago) Visual Flight Rules
Wind Visibility Clouds
290° at 5 knots 9 miles
  • Few at 15,000' AGL
Temperatures Readings
Current 29°C / 84°F
Dewpoint 9°C / 48°F
Humidity 29%
Altimeter 29.92" Hg
Pressure 1013.5 hPa
Elevation 545
METAR CYQZ 172300Z AUTO 29005KT 260V340 9SM FEW150 29/09 A2992 RMK SLP135 DENSITY ALT 3700FT
Observed Flight Rules
Jul-17 @ 23:00 UTC
(23 minutes ago)
VFR
Wind Visibility
290° at 5 knots 9 miles
Clouds
  • Few at 15,000' AGL
Temperature Dewpoint
29°C / 84°F 9°C / 48°F
Humidity Altimeter Pressure
29% 29.92" Hg 1013.5 hPa